sensor_id;sensor_type;location;lat;lon;timestamp;temperature;humidity
71291;DHT22;59073;51.994;4.448;2023-07-29T00:00:42;19.11;82.42
71291;DHT22;59073;51.994;4.448;2023-07-29T00:03:08;19.12;82.34
71291;DHT22;59073;51.994;4.448;2023-07-29T00:05:33;19.08;82.25
71291;DHT22;59073;51.994;4.448;2023-07-29T00:07:59;19.06;81.86
71291;DHT22;59073;51.994;4.448;2023-07-29T00:10:24;19.03;81.70
71291;DHT22;59073;51.994;4.448;2023-07-29T00:12:49;19.01;81.70
71291;DHT22;59073;51.994;4.448;2023-07-29T00:15:15;18.95;81.38
71291;DHT22;59073;51.994;4.448;2023-07-29T00:17:40;18.95;81.12
71291;DHT22;59073;51.994;4.448;2023-07-29T00:20:07;18.91;80.94
71291;DHT22;59073;51.994;4.448;2023-07-29T00:22:32;18.84;80.87
71291;DHT22;59073;51.994;4.448;2023-07-29T00:24:58;18.82;80.93
71291;DHT22;59073;51.994;4.448;2023-07-29T00:27:24;18.72;81.00
71291;DHT22;59073;51.994;4.448;2023-07-29T00:29:50;18.57;81.16
71291;DHT22;59073;51.994;4.448;2023-07-29T00:32:15;18.47;81.32
71291;DHT22;59073;51.994;4.448;2023-07-29T00:34:41;18.38;81.48
71291;DHT22;59073;51.994;4.448;2023-07-29T00:37:06;18.38;81.31
71291;DHT22;59073;51.994;4.448;2023-07-29T00:39:32;18.38;81.14
71291;DHT22;59073;51.994;4.448;2023-07-29T00:41:58;18.40;81.16
71291;DHT22;59073;51.994;4.448;2023-07-29T00:44:24;18.44;80.81
71291;DHT22;59073;51.994;4.448;2023-07-29T00:46:53;18.44;80.82
71291;DHT22;59073;51.994;4.448;2023-07-29T00:49:20;18.43;81.16
71291;DHT22;59073;51.994;4.448;2023-07-29T00:51:46;18.43;81.26
71291;DHT22;59073;51.994;4.448;2023-07-29T00:54:12;18.43;81.38
71291;DHT22;59073;51.994;4.448;2023-07-29T00:56:37;18.44;81.79
71291;DHT22;59073;51.994;4.448;2023-07-29T00:59:03;18.36;82.28
71291;DHT22;59073;51.994;4.448;2023-07-29T01:01:30;18.43;82.32
71291;DHT22;59073;51.994;4.448;2023-07-29T01:03:57;18.43;82.34
71291;DHT22;59073;51.994;4.448;2023-07-29T01:12:36;18.72;81.79
71291;DHT22;59073;51.994;4.448;2023-07-29T01:15:13;18.67;81.72
71291;DHT22;59073;51.994;4.448;2023-07-29T01:18:02;18.71;81.57
71291;DHT22;59073;51.994;4.448;2023-07-29T01:20:33;18.52;81.87
71291;DHT22;59073;51.994;4.448;2023-07-29T01:22:58;18.61;82.11
71291;DHT22;59073;51.994;4.448;2023-07-29T01:25:24;18.75;81.59
71291;DHT22;59073;51.994;4.448;2023-07-29T01:27:51;18.71;81.57
71291;DHT22;59073;51.994;4.448;2023-07-29T01:30:27;18.58;81.91
71291;DHT22;59073;51.994;4.448;2023-07-29T01:33:21;18.54;81.85
71291;DHT22;59073;51.994;4.448;2023-07-29T01:35:52;18.67;81.52
71291;DHT22;59073;51.994;4.448;2023-07-29T01:38:24;18.68;81.48
71291;DHT22;59073;51.994;4.448;2023-07-29T01:40:54;18.68;81.43
71291;DHT22;59073;51.994;4.448;2023-07-29T01:43:21;18.57;81.28
71291;DHT22;59073;51.994;4.448;2023-07-29T01:45:49;18.48;81.40
71291;DHT22;59073;51.994;4.448;2023-07-29T01:48:15;18.41;81.54
71291;DHT22;59073;51.994;4.448;2023-07-29T01:50:40;18.43;81.62
71291;DHT22;59073;51.994;4.448;2023-07-29T01:53:06;18.40;81.59
71291;DHT22;59073;51.994;4.448;2023-07-29T01:55:31;18.40;81.59
71291;DHT22;59073;51.994;4.448;2023-07-29T01:57:57;18.48;81.33
71291;DHT22;59073;51.994;4.448;2023-07-29T02:00:23;18.44;81.18
71291;DHT22;59073;51.994;4.448;2023-07-29T02:02:49;18.51;81.29
71291;DHT22;59073;51.994;4.448;2023-07-29T02:05:14;18.47;81.41
71291;DHT22;59073;51.994;4.448;2023-07-29T02:07:39;18.44;81.49
71291;DHT22;59073;51.994;4.448;2023-07-29T02:10:05;18.40;81.59
71291;DHT22;59073;51.994;4.448;2023-07-29T02:12:31;18.34;81.65
71291;DHT22;59073;51.994;4.448;2023-07-29T02:14:56;18.24;81.93
71291;DHT22;59073;51.994;4.448;2023-07-29T02:17:21;18.27;81.73
71291;DHT22;59073;51.994;4.448;2023-07-29T02:19:47;18.27;81.94
71291;DHT22;59073;51.994;4.448;2023-07-29T02:22:17;18.31;81.87
71291;DHT22;59073;51.994;4.448;2023-07-29T02:24:43;18.36;81.56
71291;DHT22;59073;51.994;4.448;2023-07-29T02:27:08;18.41;81.56
71291;DHT22;59073;51.994;4.448;2023-07-29T02:29:33;18.37;81.39
71291;DHT22;59073;51.994;4.448;2023-07-29T02:32:00;18.27;81.66
71291;DHT22;59073;51.994;4.448;2023-07-29T02:34:25;18.29;81.82
71291;DHT22;59073;51.994;4.448;2023-07-29T02:36:51;18.34;81.70
71291;DHT22;59073;51.994;4.448;2023-07-29T02:39:16;18.43;81.54
71291;DHT22;59073;51.994;4.448;2023-07-29T02:41:42;18.48;81.24
71291;DHT22;59073;51.994;4.448;2023-07-29T02:44:07;18.48;80.87
71291;DHT22;59073;51.994;4.448;2023-07-29T02:46:33;18.45;80.91
71291;DHT22;59073;51.994;4.448;2023-07-29T02:48:58;18.41;81.07
71291;DHT22;59073;51.994;4.448;2023-07-29T02:51:24;18.40;81.23
71291;DHT22;59073;51.994;4.448;2023-07-29T02:53:50;18.38;81.36
71291;DHT22;59073;51.994;4.448;2023-07-29T02:56:15;18.41;81.38
71291;DHT22;59073;51.994;4.448;2023-07-29T02:58:41;18.48;81.24
71291;DHT22;59073;51.994;4.448;2023-07-29T03:01:06;18.43;81.39
71291;DHT22;59073;51.994;4.448;2023-07-29T03:03:32;18.31;81.55
71291;DHT22;59073;51.994;4.448;2023-07-29T03:06:02;18.20;82.25
71291;DHT22;59073;51.994;4.448;2023-07-29T03:08:28;18.13;82.75
71291;DHT22;59073;51.994;4.448;2023-07-29T03:10:54;18.14;82.90
71291;DHT22;59073;51.994;4.448;2023-07-29T03:13:20;18.10;83.24
71291;DHT22;59073;51.994;4.448;2023-07-29T03:15:45;18.09;83.34
71291;DHT22;59073;51.994;4.448;2023-07-29T03:18:10;18.10;83.50
71291;DHT22;59073;51.994;4.448;2023-07-29T03:20:36;18.03;83.98
71291;DHT22;59073;51.994;4.448;2023-07-29T03:23:01;18.10;83.89
71291;DHT22;59073;51.994;4.448;2023-07-29T03:25:28;18.06;83.66
71291;DHT22;59073;51.994;4.448;2023-07-29T03:27:54;18.04;83.63
71291;DHT22;59073;51.994;4.448;2023-07-29T03:30:20;18.03;83.72
71291;DHT22;59073;51.994;4.448;2023-07-29T03:32:47;18.14;83.80
71291;DHT22;59073;51.994;4.448;2023-07-29T03:35:13;18.18;83.44
71291;DHT22;59073;51.994;4.448;2023-07-29T03:37:39;18.24;83.35
71291;DHT22;59073;51.994;4.448;2023-07-29T03:40:05;18.18;83.41
71291;DHT22;59073;51.994;4.448;2023-07-29T03:42:31;18.18;83.76
71291;DHT22;59073;51.994;4.448;2023-07-29T03:44:56;18.34;82.96
71291;DHT22;59073;51.994;4.448;2023-07-29T03:47:22;18.38;82.79
71291;DHT22;59073;51.994;4.448;2023-07-29T03:49:47;18.34;83.02
71291;DHT22;59073;51.994;4.448;2023-07-29T03:52:12;18.27;83.12
71291;DHT22;59073;51.994;4.448;2023-07-29T03:54:38;18.18;83.36
71291;DHT22;59073;51.994;4.448;2023-07-29T03:57:03;18.14;83.43
71291;DHT22;59073;51.994;4.448;2023-07-29T03:59:29;18.21;83.47
71291;DHT22;59073;51.994;4.448;2023-07-29T04:01:54;18.20;83.30
71291;DHT22;59073;51.994;4.448;2023-07-29T04:04:20;18.18;83.43
71291;DHT22;59073;51.994;4.448;2023-07-29T04:06:45;18.16;83.50
71291;DHT22;59073;51.994;4.448;2023-07-29T04:09:11;18.23;83.43
71291;DHT22;59073;51.994;4.448;2023-07-29T04:11:36;18.29;83.04
71291;DHT22;59073;51.994;4.448;2023-07-29T04:14:02;18.29;82.88
71291;DHT22;59073;51.994;4.448;2023-07-29T04:16:27;18.30;83.02
71291;DHT22;59073;51.994;4.448;2023-07-29T04:18:54;18.36;82.96
71291;DHT22;59073;51.994;4.448;2023-07-29T04:21:19;18.34;83.26
71291;DHT22;59073;51.994;4.448;2023-07-29T04:23:45;18.33;83.18
71291;DHT22;59073;51.994;4.448;2023-07-29T04:26:10;18.37;83.29
71291;DHT22;59073;51.994;4.448;2023-07-29T04:28:35;18.29;83.44
71291;DHT22;59073;51.994;4.448;2023-07-29T04:31:01;18.33;83.45
71291;DHT22;59073;51.994;4.448;2023-07-29T04:33:26;18.37;83.31
71291;DHT22;59073;51.994;4.448;2023-07-29T04:35:52;18.51;83.05
71291;DHT22;59073;51.994;4.448;2023-07-29T04:38:17;18.57;82.85
71291;DHT22;59073;51.994;4.448;2023-07-29T04:40:42;18.69;82.55
71291;DHT22;59073;51.994;4.448;2023-07-29T04:43:08;18.69;82.47
71291;DHT22;59073;51.994;4.448;2023-07-29T04:45:33;18.68;82.58
71291;DHT22;59073;51.994;4.448;2023-07-29T04:47:59;18.67;82.97
71291;DHT22;59073;51.994;4.448;2023-07-29T04:50:24;18.61;83.22
71291;DHT22;59073;51.994;4.448;2023-07-29T04:52:50;18.75;82.70
71291;DHT22;59073;51.994;4.448;2023-07-29T04:55:15;18.72;83.05
71291;DHT22;59073;51.994;4.448;2023-07-29T04:57:41;18.57;83.20
71291;DHT22;59073;51.994;4.448;2023-07-29T05:00:06;18.71;82.90
71291;DHT22;59073;51.994;4.448;2023-07-29T05:02:32;18.71;83.05
71291;DHT22;59073;51.994;4.448;2023-07-29T05:04:57;18.51;83.58
71291;DHT22;59073;51.994;4.448;2023-07-29T05:07:23;18.52;83.83
71291;DHT22;59073;51.994;4.448;2023-07-29T05:09:48;18.69;83.78
71291;DHT22;59073;51.994;4.448;2023-07-29T05:12:14;18.89;82.89
71291;DHT22;59073;51.994;4.448;2023-07-29T05:14:39;18.88;82.89
71291;DHT22;59073;51.994;4.448;2023-07-29T05:17:05;19.01;82.50
71291;DHT22;59073;51.994;4.448;2023-07-29T05:19:31;19.11;82.61
71291;DHT22;59073;51.994;4.448;2023-07-29T05:21:56;19.22;82.15
71291;DHT22;59073;51.994;4.448;2023-07-29T05:24:23;19.42;81.32
71291;DHT22;59073;51.994;4.448;2023-07-29T05:26:48;19.46;81.09
71291;DHT22;59073;51.994;4.448;2023-07-29T05:29:14;19.46;80.81
71291;DHT22;59073;51.994;4.448;2023-07-29T05:31:39;19.59;80.78
71291;DHT22;59073;51.994;4.448;2023-07-29T05:34:05;19.59;80.99
71291;DHT22;59073;51.994;4.448;2023-07-29T05:36:30;19.67;80.59
71291;DHT22;59073;51.994;4.448;2023-07-29T05:38:55;19.67;80.92
71291;DHT22;59073;51.994;4.448;2023-07-29T05:41:21;19.73;80.97
71291;DHT22;59073;51.994;4.448;2023-07-29T05:43:46;19.91;80.74
71291;DHT22;59073;51.994;4.448;2023-07-29T05:46:12;20.11;79.99
71291;DHT22;59073;51.994;4.448;2023-07-29T05:48:37;20.15;79.78
71291;DHT22;59073;51.994;4.448;2023-07-29T05:51:03;20.01;80.32
71291;DHT22;59073;51.994;4.448;2023-07-29T05:53:30;19.85;80.87
71291;DHT22;59073;51.994;4.448;2023-07-29T05:55:56;19.88;80.97
71291;DHT22;59073;51.994;4.448;2023-07-29T05:58:21;19.91;81.03
71291;DHT22;59073;51.994;4.448;2023-07-29T06:00:47;19.90;81.46
71291;DHT22;59073;51.994;4.448;2023-07-29T06:03:12;20.00;81.18
71291;DHT22;59073;51.994;4.448;2023-07-29T06:05:38;19.83;81.57
71291;DHT22;59073;51.994;4.448;2023-07-29T06:08:04;19.84;81.94
71291;DHT22;59073;51.994;4.448;2023-07-29T06:10:29;19.85;81.50
71291;DHT22;59073;51.994;4.448;2023-07-29T06:12:55;19.74;81.66
71291;DHT22;59073;51.994;4.448;2023-07-29T06:15:20;19.64;81.77
71291;DHT22;59073;51.994;4.448;2023-07-29T06:17:48;19.71;82.14
71291;DHT22;59073;51.994;4.448;2023-07-29T06:20:13;19.84;81.75
71291;DHT22;59073;51.994;4.448;2023-07-29T06:22:39;20.00;81.19
71291;DHT22;59073;51.994;4.448;2023-07-29T06:25:04;20.14;80.96
71291;DHT22;59073;51.994;4.448;2023-07-29T06:27:30;20.25;80.66
71291;DHT22;59073;51.994;4.448;2023-07-29T06:29:55;20.39;80.49
71291;DHT22;59073;51.994;4.448;2023-07-29T06:32:20;20.53;79.97
71291;DHT22;59073;51.994;4.448;2023-07-29T06:34:46;20.52;80.33
71291;DHT22;59073;51.994;4.448;2023-07-29T06:37:11;20.79;79.79
71291;DHT22;59073;51.994;4.448;2023-07-29T06:39:37;21.92;76.93
71291;DHT22;59073;51.994;4.448;2023-07-29T06:42:02;22.02;75.84
71291;DHT22;59073;51.994;4.448;2023-07-29T06:44:28;22.46;74.31
71291;DHT22;59073;51.994;4.448;2023-07-29T06:46:53;23.66;71.78
71291;DHT22;59073;51.994;4.448;2023-07-29T06:49:19;24.21;69.41
71291;DHT22;59073;51.994;4.448;2023-07-29T06:51:44;23.26;70.75
71291;DHT22;59073;51.994;4.448;2023-07-29T06:54:10;22.40;73.46
71291;DHT22;59073;51.994;4.448;2023-07-29T06:56:35;21.65;75.58
71291;DHT22;59073;51.994;4.448;2023-07-29T06:59:00;21.45;76.07
71291;DHT22;59073;51.994;4.448;2023-07-29T07:01:26;22.33;74.44
71291;DHT22;59073;51.994;4.448;2023-07-29T07:03:51;22.54;73.67
71291;DHT22;59073;51.994;4.448;2023-07-29T07:06:21;22.56;73.12
71291;DHT22;59073;51.994;4.448;2023-07-29T07:08:46;22.80;71.72
71291;DHT22;59073;51.994;4.448;2023-07-29T07:11:12;22.87;71.39
71291;DHT22;59073;51.994;4.448;2023-07-29T07:13:37;22.87;70.80
71291;DHT22;59073;51.994;4.448;2023-07-29T07:16:03;22.81;70.09
71291;DHT22;59073;51.994;4.448;2023-07-29T07:18:28;23.01;70.77
71291;DHT22;59073;51.994;4.448;2023-07-29T07:20:53;23.37;70.38
71291;DHT22;59073;51.994;4.448;2023-07-29T07:23:19;23.80;68.87
71291;DHT22;59073;51.994;4.448;2023-07-29T07:25:45;23.96;67.58
71291;DHT22;59073;51.994;4.448;2023-07-29T07:28:10;24.07;66.91
71291;DHT22;59073;51.994;4.448;2023-07-29T07:30:39;23.67;67.37
71291;DHT22;59073;51.994;4.448;2023-07-29T07:33:06;23.14;68.21
71291;DHT22;59073;51.994;4.448;2023-07-29T07:35:32;22.95;68.15
71291;DHT22;59073;51.994;4.448;2023-07-29T07:37:57;22.63;68.30
71291;DHT22;59073;51.994;4.448;2023-07-29T07:40:24;22.88;69.00
71291;DHT22;59073;51.994;4.448;2023-07-29T07:42:49;23.10;68.17
71291;DHT22;59073;51.994;4.448;2023-07-29T07:45:14;23.22;68.35
71291;DHT22;59073;51.994;4.448;2023-07-29T07:47:40;23.38;67.06
71291;DHT22;59073;51.994;4.448;2023-07-29T07:50:05;23.61;67.18
71291;DHT22;59073;51.994;4.448;2023-07-29T07:52:31;23.73;66.54
71291;DHT22;59073;51.994;4.448;2023-07-29T07:54:56;23.87;66.48
71291;DHT22;59073;51.994;4.448;2023-07-29T07:57:22;24.27;66.29
71291;DHT22;59073;51.994;4.448;2023-07-29T07:59:47;24.01;65.41
71291;DHT22;59073;51.994;4.448;2023-07-29T08:02:12;23.32;67.90
71291;DHT22;59073;51.994;4.448;2023-07-29T08:04:38;23.55;66.46
71291;DHT22;59073;51.994;4.448;2023-07-29T08:07:04;23.67;66.78
71291;DHT22;59073;51.994;4.448;2023-07-29T08:09:29;23.53;65.35
71291;DHT22;59073;51.994;4.448;2023-07-29T08:11:54;23.15;65.83
71291;DHT22;59073;51.994;4.448;2023-07-29T08:14:20;22.64;66.34
71291;DHT22;59073;51.994;4.448;2023-07-29T08:16:45;22.68;68.13
71291;DHT22;59073;51.994;4.448;2023-07-29T08:19:11;22.87;68.13
71291;DHT22;59073;51.994;4.448;2023-07-29T08:21:36;22.65;67.49
71291;DHT22;59073;51.994;4.448;2023-07-29T08:24:02;22.57;68.15
71291;DHT22;59073;51.994;4.448;2023-07-29T08:26:27;22.37;68.80
71291;DHT22;59073;51.994;4.448;2023-07-29T08:28:53;22.26;68.87
71291;DHT22;59073;51.994;4.448;2023-07-29T08:31:18;22.20;69.24
71291;DHT22;59073;51.994;4.448;2023-07-29T08:33:43;22.16;70.12
71291;DHT22;59073;51.994;4.448;2023-07-29T08:36:09;21.99;70.91
71291;DHT22;59073;51.994;4.448;2023-07-29T08:38:34;21.98;71.51
71291;DHT22;59073;51.994;4.448;2023-07-29T08:41:16;22.24;72.03
71291;DHT22;59073;51.994;4.448;2023-07-29T08:44:06;22.17;71.98
71291;DHT22;59073;51.994;4.448;2023-07-29T08:46:34;21.91;72.21
71291;DHT22;59073;51.994;4.448;2023-07-29T08:49:01;21.79;73.29
71291;DHT22;59073;51.994;4.448;2023-07-29T08:51:27;21.88;73.14
71291;DHT22;59073;51.994;4.448;2023-07-29T08:53:55;21.72;73.45
71291;DHT22;59073;51.994;4.448;2023-07-29T08:56:21;21.62;73.58
71291;DHT22;59073;51.994;4.448;2023-07-29T08:58:47;21.50;74.51
71291;DHT22;59073;51.994;4.448;2023-07-29T09:01:14;21.37;75.23
71291;DHT22;59073;51.994;4.448;2023-07-29T09:03:41;21.31;75.72
71291;DHT22;59073;51.994;4.448;2023-07-29T09:06:07;21.14;75.92
71291;DHT22;59073;51.994;4.448;2023-07-29T09:08:34;21.21;76.66
71291;DHT22;59073;51.994;4.448;2023-07-29T09:11:00;21.33;76.34
71291;DHT22;59073;51.994;4.448;2023-07-29T09:13:25;21.57;76.87
71291;DHT22;59073;51.994;4.448;2023-07-29T09:15:55;21.66;75.19
71291;DHT22;59073;51.994;4.448;2023-07-29T09:18:22;21.71;74.92
71291;DHT22;59073;51.994;4.448;2023-07-29T09:20:49;21.79;74.19
71291;DHT22;59073;51.994;4.448;2023-07-29T09:23:15;21.99;74.33
71291;DHT22;59073;51.994;4.448;2023-07-29T09:25:41;22.16;73.62
71291;DHT22;59073;51.994;4.448;2023-07-29T09:28:12;22.09;72.96
71291;DHT22;59073;51.994;4.448;2023-07-29T09:30:39;22.23;72.84
71291;DHT22;59073;51.994;4.448;2023-07-29T09:33:06;22.26;72.12
71291;DHT22;59073;51.994;4.448;2023-07-29T09:35:36;22.36;72.85
71291;DHT22;59073;51.994;4.448;2023-07-29T09:38:04;22.49;72.15
71291;DHT22;59073;51.994;4.448;2023-07-29T09:40:37;22.33;71.85
71291;DHT22;59073;51.994;4.448;2023-07-29T09:43:04;22.12;72.34
71291;DHT22;59073;51.994;4.448;2023-07-29T09:45:29;22.06;73.82
71291;DHT22;59073;51.994;4.448;2023-07-29T09:47:57;22.30;73.63
71291;DHT22;59073;51.994;4.448;2023-07-29T09:50:24;22.47;72.04
71291;DHT22;59073;51.994;4.448;2023-07-29T09:52:51;22.44;72.60
71291;DHT22;59073;51.994;4.448;2023-07-29T09:55:19;22.60;72.15
71291;DHT22;59073;51.994;4.448;2023-07-29T09:57:45;22.77;72.40
71291;DHT22;59073;51.994;4.448;2023-07-29T10:00:12;22.97;71.22
71291;DHT22;59073;51.994;4.448;2023-07-29T10:02:40;22.70;70.98
71291;DHT22;59073;51.994;4.448;2023-07-29T10:05:06;22.50;72.52
71291;DHT22;59073;51.994;4.448;2023-07-29T10:07:34;22.33;71.77
71291;DHT22;59073;51.994;4.448;2023-07-29T10:10:02;22.01;73.01
71291;DHT22;59073;51.994;4.448;2023-07-29T10:12:30;21.65;74.14
71291;DHT22;59073;51.994;4.448;2023-07-29T10:14:59;21.47;75.73
71291;DHT22;59073;51.994;4.448;2023-07-29T10:17:26;21.33;77.02
71291;DHT22;59073;51.994;4.448;2023-07-29T10:19:52;21.24;77.86
71291;DHT22;59073;51.994;4.448;2023-07-29T10:22:20;21.21;78.59
71291;DHT22;59073;51.994;4.448;2023-07-29T10:24:48;21.42;78.49
71291;DHT22;59073;51.994;4.448;2023-07-29T10:27:18;21.41;78.16
71291;DHT22;59073;51.994;4.448;2023-07-29T10:29:43;21.30;78.29
71291;DHT22;59073;51.994;4.448;2023-07-29T10:32:11;21.13;78.28
71291;DHT22;59073;51.994;4.448;2023-07-29T10:34:39;21.02;78.74
71291;DHT22;59073;51.994;4.448;2023-07-29T10:37:05;21.03;78.82
71291;DHT22;59073;51.994;4.448;2023-07-29T10:39:40;21.14;78.74
71291;DHT22;59073;51.994;4.448;2023-07-29T10:42:16;21.35;78.30
71291;DHT22;59073;51.994;4.448;2023-07-29T10:47:14;21.78;78.81
71291;DHT22;59073;51.994;4.448;2023-07-29T10:49:40;22.05;78.35
71291;DHT22;59073;51.994;4.448;2023-07-29T10:52:07;22.17;77.75
71291;DHT22;59073;51.994;4.448;2023-07-29T10:54:42;22.05;77.66
71291;DHT22;59073;51.994;4.448;2023-07-29T10:57:13;22.39;77.65
71291;DHT22;59073;51.994;4.448;2023-07-29T10:59:40;22.43;78.04
71291;DHT22;59073;51.994;4.448;2023-07-29T11:02:17;22.44;76.33
71291;DHT22;59073;51.994;4.448;2023-07-29T11:04:50;22.65;76.79
71291;DHT22;59073;51.994;4.448;2023-07-29T11:09:51;22.84;76.68
71291;DHT22;59073;51.994;4.448;2023-07-29T11:12:37;22.94;75.54
71291;DHT22;59073;51.994;4.448;2023-07-29T11:15:12;22.84;74.49
71291;DHT22;59073;51.994;4.448;2023-07-29T11:17:46;22.83;74.60
71291;DHT22;59073;51.994;4.448;2023-07-29T11:20:14;22.70;76.06
71291;DHT22;59073;51.994;4.448;2023-07-29T11:22:41;22.84;75.81
71291;DHT22;59073;51.994;4.448;2023-07-29T11:25:09;22.90;75.10
71291;DHT22;59073;51.994;4.448;2023-07-29T11:27:36;22.97;75.11
71291;DHT22;59073;51.994;4.448;2023-07-29T11:30:04;23.12;74.62
71291;DHT22;59073;51.994;4.448;2023-07-29T11:32:31;22.91;74.79
71291;DHT22;59073;51.994;4.448;2023-07-29T11:35:01;22.84;75.31
71291;DHT22;59073;51.994;4.448;2023-07-29T11:37:27;22.88;75.19
71291;DHT22;59073;51.994;4.448;2023-07-29T11:39:52;22.97;74.16
71291;DHT22;59073;51.994;4.448;2023-07-29T11:42:18;23.12;74.90
71291;DHT22;59073;51.994;4.448;2023-07-29T11:44:43;23.22;73.40
71291;DHT22;59073;51.994;4.448;2023-07-29T11:47:10;23.15;73.27
71291;DHT22;59073;51.994;4.448;2023-07-29T11:49:38;22.88;72.95
71291;DHT22;59073;51.994;4.448;2023-07-29T11:52:07;22.54;73.81
71291;DHT22;59073;51.994;4.448;2023-07-29T11:54:33;22.64;74.26
71291;DHT22;59073;51.994;4.448;2023-07-29T11:56:59;22.78;74.19
71291;DHT22;59073;51.994;4.448;2023-07-29T11:59:25;23.11;73.35
71291;DHT22;59073;51.994;4.448;2023-07-29T12:01:53;23.39;73.18
71291;DHT22;59073;51.994;4.448;2023-07-29T12:04:19;23.38;72.14
71291;DHT22;59073;51.994;4.448;2023-07-29T12:06:45;23.37;70.64
71291;DHT22;59073;51.994;4.448;2023-07-29T12:09:10;23.37;71.45
71291;DHT22;59073;51.994;4.448;2023-07-29T12:11:39;23.29;71.51
71291;DHT22;59073;51.994;4.448;2023-07-29T12:14:07;23.77;73.10
71291;DHT22;59073;51.994;4.448;2023-07-29T12:16:40;24.30;71.32
71291;DHT22;59073;51.994;4.448;2023-07-29T12:19:06;24.42;69.49
71291;DHT22;59073;51.994;4.448;2023-07-29T12:21:31;24.28;69.06
71291;DHT22;59073;51.994;4.448;2023-07-29T12:23:56;23.89;69.52
71291;DHT22;59073;51.994;4.448;2023-07-29T12:26:27;24.09;68.47
71291;DHT22;59073;51.994;4.448;2023-07-29T12:28:53;24.16;67.53
71291;DHT22;59073;51.994;4.448;2023-07-29T12:31:18;24.31;68.95
71291;DHT22;59073;51.994;4.448;2023-07-29T12:33:44;24.24;68.54
71291;DHT22;59073;51.994;4.448;2023-07-29T12:36:09;23.80;68.95
71291;DHT22;59073;51.994;4.448;2023-07-29T12:38:35;23.89;69.59
71291;DHT22;59073;51.994;4.448;2023-07-29T12:41:01;24.06;68.99
71291;DHT22;59073;51.994;4.448;2023-07-29T12:43:28;24.32;68.64
71291;DHT22;59073;51.994;4.448;2023-07-29T12:45:54;24.34;68.12
71291;DHT22;59073;51.994;4.448;2023-07-29T12:48:19;24.21;68.62
71291;DHT22;59073;51.994;4.448;2023-07-29T12:50:45;23.97;68.18
71291;DHT22;59073;51.994;4.448;2023-07-29T12:53:11;23.82;67.87
71291;DHT22;59073;51.994;4.448;2023-07-29T12:55:36;23.61;67.77
71291;DHT22;59073;51.994;4.448;2023-07-29T12:58:02;23.61;68.68
71291;DHT22;59073;51.994;4.448;2023-07-29T13:00:28;23.59;69.00
71291;DHT22;59073;51.994;4.448;2023-07-29T13:02:53;23.66;69.10
71291;DHT22;59073;51.994;4.448;2023-07-29T13:05:19;23.49;68.39
71291;DHT22;59073;51.994;4.448;2023-07-29T13:07:44;23.53;69.21
71291;DHT22;59073;51.994;4.448;2023-07-29T13:10:10;23.87;70.28
71291;DHT22;59073;51.994;4.448;2023-07-29T13:12:36;24.24;68.32
71291;DHT22;59073;51.994;4.448;2023-07-29T13:15:01;24.27;66.67
71291;DHT22;59073;51.994;4.448;2023-07-29T13:17:27;24.30;67.56
71291;DHT22;59073;51.994;4.448;2023-07-29T13:19:52;24.18;66.68
71291;DHT22;59073;51.994;4.448;2023-07-29T13:22:19;24.44;68.53
71291;DHT22;59073;51.994;4.448;2023-07-29T13:24:45;24.61;66.75
71291;DHT22;59073;51.994;4.448;2023-07-29T13:27:10;24.65;64.07
71291;DHT22;59073;51.994;4.448;2023-07-29T13:29:36;24.91;66.85
71291;DHT22;59073;51.994;4.448;2023-07-29T13:32:01;25.03;64.20
71291;DHT22;59073;51.994;4.448;2023-07-29T13:34:27;24.91;62.74
71291;DHT22;59073;51.994;4.448;2023-07-29T13:36:53;24.82;62.49
71291;DHT22;59073;51.994;4.448;2023-07-29T13:39:18;25.10;63.17
71291;DHT22;59073;51.994;4.448;2023-07-29T13:41:43;25.09;62.72
71291;DHT22;59073;51.994;4.448;2023-07-29T13:44:09;24.65;63.22
71291;DHT22;59073;51.994;4.448;2023-07-29T13:46:34;24.72;65.54
71291;DHT22;59073;51.994;4.448;2023-07-29T13:49:00;24.73;65.34
71291;DHT22;59073;51.994;4.448;2023-07-29T13:51:25;24.67;63.28
71291;DHT22;59073;51.994;4.448;2023-07-29T13:53:50;24.69;64.89
71291;DHT22;59073;51.994;4.448;2023-07-29T13:56:16;24.81;63.68
71291;DHT22;59073;51.994;4.448;2023-07-29T13:58:41;24.40;64.56
71291;DHT22;59073;51.994;4.448;2023-07-29T14:01:06;24.27;63.96
71291;DHT22;59073;51.994;4.448;2023-07-29T14:03:32;24.31;63.71
71291;DHT22;59073;51.994;4.448;2023-07-29T14:05:57;24.23;63.81
71291;DHT22;59073;51.994;4.448;2023-07-29T14:08:23;24.37;63.31
71291;DHT22;59073;51.994;4.448;2023-07-29T14:10:49;24.57;63.17
71291;DHT22;59073;51.994;4.448;2023-07-29T14:13:15;24.67;61.95
71291;DHT22;59073;51.994;4.448;2023-07-29T14:15:40;24.57;63.79
71291;DHT22;59073;51.994;4.448;2023-07-29T14:18:06;24.35;61.77
71291;DHT22;59073;51.994;4.448;2023-07-29T14:20:32;24.52;63.52
71291;DHT22;59073;51.994;4.448;2023-07-29T14:22:57;24.50;62.59
71291;DHT22;59073;51.994;4.448;2023-07-29T14:25:23;24.24;62.17
71291;DHT22;59073;51.994;4.448;2023-07-29T14:27:48;23.97;62.75
71291;DHT22;59073;51.994;4.448;2023-07-29T14:30:13;23.79;63.25
71291;DHT22;59073;51.994;4.448;2023-07-29T14:32:39;23.90;63.80
71291;DHT22;59073;51.994;4.448;2023-07-29T14:35:05;24.01;64.41
71291;DHT22;59073;51.994;4.448;2023-07-29T14:37:31;24.07;63.84
71291;DHT22;59073;51.994;4.448;2023-07-29T14:40:00;24.14;64.95
71291;DHT22;59073;51.994;4.448;2023-07-29T14:42:27;24.11;64.83
71291;DHT22;59073;51.994;4.448;2023-07-29T14:44:52;24.27;64.70
71291;DHT22;59073;51.994;4.448;2023-07-29T14:47:18;24.17;65.14
71291;DHT22;59073;51.994;4.448;2023-07-29T14:49:45;24.20;65.39
71291;DHT22;59073;51.994;4.448;2023-07-29T14:52:11;24.34;64.89
71291;DHT22;59073;51.994;4.448;2023-07-29T14:54:36;24.51;65.41
71291;DHT22;59073;51.994;4.448;2023-07-29T14:57:02;24.37;65.63
71291;DHT22;59073;51.994;4.448;2023-07-29T14:59:28;24.21;66.79
71291;DHT22;59073;51.994;4.448;2023-07-29T15:01:53;24.03;66.71
71291;DHT22;59073;51.994;4.448;2023-07-29T15:04:19;23.82;67.12
71291;DHT22;59073;51.994;4.448;2023-07-29T15:06:44;23.92;67.19
71291;DHT22;59073;51.994;4.448;2023-07-29T15:09:10;23.92;67.61
71291;DHT22;59073;51.994;4.448;2023-07-29T15:11:36;23.70;67.55
71291;DHT22;59073;51.994;4.448;2023-07-29T15:14:02;23.61;67.06
71291;DHT22;59073;51.994;4.448;2023-07-29T15:16:28;23.92;67.82
71291;DHT22;59073;51.994;4.448;2023-07-29T15:18:54;24.31;65.77
71291;DHT22;59073;51.994;4.448;2023-07-29T15:21:19;24.32;65.93
71291;DHT22;59073;51.994;4.448;2023-07-29T15:23:45;24.24;66.01
71291;DHT22;59073;51.994;4.448;2023-07-29T15:26:11;23.96;67.79
71291;DHT22;59073;51.994;4.448;2023-07-29T15:28:36;23.87;68.34
71291;DHT22;59073;51.994;4.448;2023-07-29T15:31:02;23.67;66.99
71291;DHT22;59073;51.994;4.448;2023-07-29T15:33:27;23.58;66.77
71291;DHT22;59073;51.994;4.448;2023-07-29T15:35:53;23.33;65.28